Time;durP1;ratioP1;P1;durP2;ratioP2;P2;SDS_P1;SDS_P2;PMS_P1;PMS_P2;Temp;Humidity;BMP_temperature;BMP_pressure;BME280_temperature;BME280_humidity;BME280_pressure;Samples;Min_cycle;Max_cycle;Signal;HPM_P1;HPM_P2
2022/04/05 00:02:08;;;;;;;7.20;1.70;;;;;;;;;;4937838;29;20169;-64
2022/04/05 00:04:35;;;;;;;13.05;1.60;;;;;;;;;;4937948;29;20628;-64
2022/04/05 00:07:01;;;;;;;12.30;1.88;;;;;;;;;;4937607;29;20679;-64
2022/04/05 00:09:27;;;;;;;9.55;1.42;;;;;;;;;;4937542;29;20177;-64
2022/04/05 00:11:53;;;;;;;14.43;2.05;;;;;;;;;;4938011;29;20228;-64
2022/04/05 00:14:19;;;;;;;4.78;1.13;;;;;;;;;;4937531;29;20180;-64
2022/04/05 00:16:45;;;;;;;6.82;1.17;;;;;;;;;;4937931;29;20181;-64
2022/04/05 00:19:11;;;;;;;8.25;1.63;;;;;;;;;;4938437;29;20161;-64
2022/04/05 00:21:38;;;;;;;7.65;1.75;;;;;;;;;;4937937;29;20510;-64
2022/04/05 00:24:05;;;;;;;7.70;1.73;;;;;;;;;;4937215;29;20575;-64
2022/04/05 00:26:31;;;;;;;6.80;1.85;;;;;;;;;;4937421;29;20188;-64
2022/04/05 00:28:57;;;;;;;4.85;1.42;;;;;;;;;;4937402;29;20620;-64
2022/04/05 00:31:23;;;;;;;7.82;1.60;;;;;;;;;;4937292;29;20180;-64
2022/04/05 00:33:49;;;;;;;9.63;1.67;;;;;;;;;;4937320;29;20196;-64
2022/04/05 00:36:15;;;;;;;9.18;2.17;;;;;;;;;;4937136;29;20169;-64
2022/04/05 00:38:41;;;;;;;8.32;1.40;;;;;;;;;;4937299;29;20173;-64
2022/04/05 00:41:06;;;;;;;10.23;1.92;;;;;;;;;;4936975;29;20177;-64
2022/04/05 00:43:32;;;;;;;5.82;1.13;;;;;;;;;;4951944;29;20173;-65
2022/04/05 00:45:58;;;;;;;6.88;1.40;;;;;;;;;;4936681;29;20192;-64
2022/04/05 00:48:27;;;;;;;8.63;1.83;;;;;;;;;;4936829;29;20173;-63
2022/04/05 00:50:53;;;;;;;6.13;1.23;;;;;;;;;;4936854;29;20188;-64
2022/04/05 00:53:20;;;;;;;7.22;2.05;;;;;;;;;;4937077;29;20165;-64
2022/04/05 00:55:46;;;;;;;8.48;1.73;;;;;;;;;;4936834;29;20196;-64
2022/04/05 00:58:14;;;;;;;7.30;1.40;;;;;;;;;;4937014;29;20628;-64
2022/04/05 01:00:40;;;;;;;8.82;1.90;;;;;;;;;;4937014;29;20209;-63
2022/04/05 01:03:07;;;;;;;10.77;1.45;;;;;;;;;;4937192;29;20531;-65
2022/04/05 01:05:33;;;;;;;6.82;1.42;;;;;;;;;;4936801;29;20201;-64
2022/04/05 01:08:02;;;;;;;8.55;1.48;;;;;;;;;;4951977;29;20165;-64
2022/04/05 01:10:28;;;;;;;12.32;1.80;;;;;;;;;;4936698;29;20193;-63
2022/04/05 01:12:54;;;;;;;9.48;1.55;;;;;;;;;;4936993;29;20255;-64
2022/04/05 01:15:20;;;;;;;11.10;1.77;;;;;;;;;;4937043;29;20219;-63
2022/04/05 01:17:46;;;;;;;6.40;1.50;;;;;;;;;;4937198;29;20180;-63
2022/04/05 01:20:12;;;;;;;5.70;1.13;;;;;;;;;;4936831;29;20168;-63
2022/04/05 01:22:48;;;;;;;12.25;2.03;;;;;;;;;;4936694;29;20634;-62
2022/04/05 01:25:18;;;;;;;6.30;1.20;;;;;;;;;;4936119;28;20183;-62
2022/04/05 01:27:44;;;;;;;12.18;1.63;;;;;;;;;;4936877;29;20188;-62
2022/04/05 01:30:10;;;;;;;5.80;1.35;;;;;;;;;;4936884;29;20561;-63
2022/04/05 01:32:37;;;;;;;6.18;1.55;;;;;;;;;;4936728;29;20165;-64
2022/04/05 01:35:03;;;;;;;5.80;1.10;;;;;;;;;;4951239;29;20548;-64
2022/04/05 01:37:30;;;;;;;7.18;1.13;;;;;;;;;;4936601;29;20173;-63
2022/04/05 01:39:56;;;;;;;12.23;1.98;;;;;;;;;;4936557;29;20181;-64
2022/04/05 01:42:22;;;;;;;8.75;1.50;;;;;;;;;;4936425;29;20181;-63
2022/04/05 01:44:48;;;;;;;8.05;2.22;;;;;;;;;;4936588;29;20252;-63
2022/04/05 01:47:15;;;;;;;11.38;1.50;;;;;;;;;;4943898;29;20252;-63
2022/04/05 01:49:42;;;;;;;8.45;1.65;;;;;;;;;;4936273;29;20247;-63
2022/04/05 01:52:09;;;;;;;5.68;1.42;;;;;;;;;;4936190;29;20248;-62
2022/04/05 01:54:35;;;;;;;10.10;1.65;;;;;;;;;;4936557;29;20259;-64
2022/04/05 01:57:01;;;;;;;7.25;1.35;;;;;;;;;;4936332;29;20181;-63
2022/04/05 01:59:28;;;;;;;7.75;1.60;;;;;;;;;;4936439;29;20192;-63
2022/04/05 02:01:55;;;;;;;10.05;1.48;;;;;;;;;;4951053;29;20232;-63
2022/04/05 02:04:21;;;;;;;4.47;1.15;;;;;;;;;;4936684;29;20169;-63
2022/04/05 02:06:48;;;;;;;9.00;1.65;;;;;;;;;;4936139;29;20291;-63
2022/04/05 02:09:14;;;;;;;4.65;1.13;;;;;;;;;;4936734;29;20803;-62
2022/04/05 02:11:41;;;;;;;8.68;1.50;;;;;;;;;;4936653;29;20523;-63
2022/04/05 02:14:07;;;;;;;9.82;1.85;;;;;;;;;;4936516;29;20478;-63
2022/04/05 02:16:33;;;;;;;6.00;1.40;;;;;;;;;;4936561;29;20189;-62
2022/04/05 02:19:00;;;;;;;8.43;1.40;;;;;;;;;;4936567;29;20199;-62
2022/04/05 02:21:25;;;;;;;3.83;1.27;;;;;;;;;;4937004;29;20485;-62
2022/04/05 02:23:51;;;;;;;7.38;1.42;;;;;;;;;;4943213;29;20200;-64
2022/04/05 02:26:17;;;;;;;8.05;1.30;;;;;;;;;;4944162;29;20224;-64
2022/04/05 02:28:43;;;;;;;7.32;1.33;;;;;;;;;;4943806;29;20200;-64
2022/04/05 02:31:09;;;;;;;6.60;1.40;;;;;;;;;;4943962;29;20161;-64
2022/04/05 02:33:35;;;;;;;8.93;1.58;;;;;;;;;;4945792;29;20173;-63
2022/04/05 02:36:03;;;;;;;8.77;1.10;;;;;;;;;;4947070;29;20180;-63
2022/04/05 02:38:29;;;;;;;6.72;1.42;;;;;;;;;;4948134;29;20244;-66
2022/04/05 02:40:57;;;;;;;6.00;0.93;;;;;;;;;;4946371;29;20208;-64
2022/04/05 02:43:23;;;;;;;4.55;1.52;;;;;;;;;;4955020;29;20174;-63
2022/04/05 02:45:49;;;;;;;5.25;1.75;;;;;;;;;;4958344;29;20188;-63
2022/04/05 02:48:15;;;;;;;4.72;1.40;;;;;;;;;;4958340;29;20208;-63
2022/04/05 02:50:41;;;;;;;4.80;1.60;;;;;;;;;;4957893;29;20180;-63
2022/04/05 02:53:07;;;;;;;6.80;1.52;;;;;;;;;;4957958;29;20209;-63
2022/04/05 02:55:33;;;;;;;6.97;1.52;;;;;;;;;;4952412;29;20496;-63
2022/04/05 02:57:59;;;;;;;6.20;1.35;;;;;;;;;;4939035;29;20575;-63
2022/04/05 03:00:27;;;;;;;6.95;1.33;;;;;;;;;;4938869;29;20191;-63
2022/04/05 03:02:53;;;;;;;7.13;1.42;;;;;;;;;;4939123;29;20204;-63
2022/04/05 03:05:21;;;;;;;8.07;1.30;;;;;;;;;;4938743;29;20196;-63
2022/04/05 03:07:47;;;;;;;7.65;1.42;;;;;;;;;;4939298;29;20173;-63
2022/04/05 03:10:13;;;;;;;4.38;1.55;;;;;;;;;;4938919;29;20179;-63
2022/04/05 03:12:39;;;;;;;5.32;1.35;;;;;;;;;;4939047;29;20185;-63
2022/04/05 03:15:06;;;;;;;3.25;1.15;;;;;;;;;;4938883;29;20202;-65
2022/04/05 03:17:33;;;;;;;9.38;1.60;;;;;;;;;;4938500;29;20192;-63
2022/04/05 03:20:06;;;;;;;7.18;1.50;;;;;;;;;;4938693;29;20196;-64
2022/04/05 03:22:32;;;;;;;7.10;1.13;;;;;;;;;;4938503;29;20173;-63
2022/04/05 03:24:58;;;;;;;8.98;1.30;;;;;;;;;;4938532;29;20191;-64
2022/04/05 03:27:23;;;;;;;6.65;1.40;;;;;;;;;;4938285;29;20206;-64
2022/04/05 03:29:49;;;;;;;9.88;1.20;;;;;;;;;;4938514;29;20204;-63
2022/04/05 03:32:15;;;;;;;5.68;1.40;;;;;;;;;;4938591;29;20173;-63
2022/04/05 03:34:41;;;;;;;6.40;1.55;;;;;;;;;;4938560;29;20166;-63
2022/04/05 03:37:07;;;;;;;10.43;1.70;;;;;;;;;;4938107;29;20172;-63
2022/04/05 03:39:33;;;;;;;4.50;1.25;;;;;;;;;;4938328;29;20181;-64
2022/04/05 03:42:00;;;;;;;5.00;1.40;;;;;;;;;;4938245;29;20201;-63
2022/04/05 03:44:26;;;;;;;5.93;1.35;;;;;;;;;;4938472;29;20539;-63
2022/04/05 03:46:53;;;;;;;4.97;1.25;;;;;;;;;;4937924;29;20224;-64
2022/04/05 03:49:19;;;;;;;6.25;1.55;;;;;;;;;;4938162;29;20247;-64
2022/04/05 03:51:45;;;;;;;4.65;1.20;;;;;;;;;;4938061;29;20181;-63
2022/04/05 03:54:11;;;;;;;5.95;1.20;;;;;;;;;;4938195;29;20655;-62
2022/04/05 03:56:37;;;;;;;6.95;1.83;;;;;;;;;;4937848;29;20173;-63
2022/04/05 03:59:03;;;;;;;6.07;1.30;;;;;;;;;;4938042;29;20180;-63
2022/04/05 04:01:29;;;;;;;7.60;1.33;;;;;;;;;;4938478;29;20175;-63
2022/04/05 04:03:55;;;;;;;8.48;1.55;;;;;;;;;;4937849;29;20557;-64
2022/04/05 04:06:20;;;;;;;10.32;1.60;;;;;;;;;;4937573;29;20201;-63
2022/04/05 04:08:46;;;;;;;7.72;1.42;;;;;;;;;;4937989;29;20184;-63
2022/04/05 04:11:13;;;;;;;5.55;1.30;;;;;;;;;;4938091;29;20165;-63
2022/04/05 04:13:39;;;;;;;6.72;1.70;;;;;;;;;;4937729;29;20639;-61
2022/04/05 04:16:05;;;;;;;5.45;1.48;;;;;;;;;;4938034;29;20256;-63
2022/04/05 04:18:31;;;;;;;10.45;1.83;;;;;;;;;;4964720;29;20180;-64
2022/04/05 04:20:57;;;;;;;6.90;1.38;;;;;;;;;;4939967;29;20647;-64
2022/04/05 04:23:23;;;;;;;9.63;1.60;;;;;;;;;;4937422;29;20177;-64
2022/04/05 04:25:49;;;;;;;8.40;1.40;;;;;;;;;;4937503;29;20295;-63
2022/04/05 04:28:15;;;;;;;8.07;1.38;;;;;;;;;;4937654;29;20203;-62
2022/04/05 04:30:41;;;;;;;7.03;1.10;;;;;;;;;;4937555;29;20173;-62
2022/04/05 04:33:08;;;;;;;10.63;1.35;;;;;;;;;;4937317;29;20173;-62
2022/04/05 04:35:35;;;;;;;7.10;1.58;;;;;;;;;;4938063;29;20175;-62
2022/04/05 04:38:01;;;;;;;5.90;1.35;;;;;;;;;;4952490;29;20173;-63
2022/04/05 04:40:27;;;;;;;7.28;1.70;;;;;;;;;;4937325;29;20494;-63
2022/04/05 04:42:52;;;;;;;6.50;1.20;;;;;;;;;;4937183;29;20180;-63
2022/04/05 04:45:19;;;;;;;8.25;2.20;;;;;;;;;;4937767;29;20213;-63
2022/04/05 04:47:45;;;;;;;5.30;1.20;;;;;;;;;;4937086;29;20211;-63
2022/04/05 04:50:12;;;;;;;8.40;1.85;;;;;;;;;;4937458;29;20494;-62
2022/04/05 04:52:38;;;;;;;5.15;1.58;;;;;;;;;;4937134;29;20177;-63
2022/04/05 04:55:04;;;;;;;7.43;1.45;;;;;;;;;;4937093;29;20180;-64
2022/04/05 04:57:30;;;;;;;6.10;1.38;;;;;;;;;;4936945;29;20176;-64
2022/04/05 04:59:56;;;;;;;6.93;1.52;;;;;;;;;;4936252;29;20256;-64
2022/04/05 05:02:22;;;;;;;4.32;1.38;;;;;;;;;;4936745;29;20248;-64
2022/04/05 05:04:49;;;;;;;5.47;1.30;;;;;;;;;;4937014;29;20188;-64
2022/04/05 05:07:15;;;;;;;9.05;1.75;;;;;;;;;;4936903;29;20228;-62
2022/04/05 05:09:41;;;;;;;9.07;1.95;;;;;;;;;;4936599;29;20164;-63
2022/04/05 05:12:07;;;;;;;6.47;2.30;;;;;;;;;;4936875;29;20187;-63
2022/04/05 05:14:33;;;;;;;7.47;1.63;;;;;;;;;;4936932;29;20168;-63
2022/04/05 05:16:59;;;;;;;8.93;1.60;;;;;;;;;;4936647;29;20344;-63
2022/04/05 05:19:25;;;;;;;4.80;1.20;;;;;;;;;;4936725;29;20277;-63
2022/04/05 05:21:51;;;;;;;5.15;1.20;;;;;;;;;;4936561;29;20283;-63
2022/04/05 05:24:17;;;;;;;6.47;1.25;;;;;;;;;;4951639;29;20188;-63
2022/04/05 05:26:43;;;;;;;8.10;1.27;;;;;;;;;;4936606;29;20204;-64
2022/04/05 05:29:09;;;;;;;9.40;1.90;;;;;;;;;;4936443;29;20169;-64
2022/04/05 05:31:35;;;;;;;7.32;1.38;;;;;;;;;;4936344;29;20239;-64
2022/04/05 05:34:00;;;;;;;5.03;1.65;;;;;;;;;;4936399;29;20169;-64
2022/04/05 05:36:26;;;;;;;7.38;1.77;;;;;;;;;;4936563;29;20181;-64
2022/04/05 05:38:52;;;;;;;5.53;1.60;;;;;;;;;;4936757;29;20283;-64
2022/04/05 05:41:18;;;;;;;6.40;1.92;;;;;;;;;;4936382;29;20168;-64
2022/04/05 05:43:45;;;;;;;9.82;2.03;;;;;;;;;;4936363;29;20201;-64
2022/04/05 05:46:12;;;;;;;4.47;1.13;;;;;;;;;;4936560;29;20288;-63
2022/04/05 05:48:37;;;;;;;9.43;1.50;;;;;;;;;;4936454;29;20179;-64
2022/04/05 05:51:05;;;;;;;8.52;1.50;;;;;;;;;;4936646;29;20272;-64
2022/04/05 05:53:31;;;;;;;6.35;1.33;;;;;;;;;;4936758;29;20177;-63
2022/04/05 05:55:57;;;;;;;5.75;1.42;;;;;;;;;;4936908;29;20172;-63
2022/04/05 05:58:23;;;;;;;6.50;1.35;;;;;;;;;;4936325;29;20173;-63
2022/04/05 06:00:49;;;;;;;9.13;2.20;;;;;;;;;;4936247;29;20169;-63
2022/04/05 06:03:15;;;;;;;10.10;1.50;;;;;;;;;;4936139;29;20514;-64
2022/04/05 06:05:43;;;;;;;8.30;1.23;;;;;;;;;;4936253;29;20231;-63
2022/04/05 06:08:09;;;;;;;6.18;1.42;;;;;;;;;;4936161;29;20168;-63
2022/04/05 06:10:35;;;;;;;7.22;1.58;;;;;;;;;;4936447;29;20256;-63
2022/04/05 06:13:01;;;;;;;6.20;1.40;;;;;;;;;;4939125;29;20165;-63
2022/04/05 06:15:27;;;;;;;5.00;1.40;;;;;;;;;;4940070;29;20165;-63
2022/04/05 06:17:53;;;;;;;7.28;1.38;;;;;;;;;;4939664;29;20271;-63
2022/04/05 06:20:21;;;;;;;7.88;1.52;;;;;;;;;;4940116;29;20627;-62
2022/04/05 06:22:48;;;;;;;3.28;1.42;;;;;;;;;;4939954;29;20263;-63
2022/04/05 06:25:16;;;;;;;4.30;1.10;;;;;;;;;;4939902;29;20181;-64
2022/04/05 06:27:42;;;;;;;5.50;1.65;;;;;;;;;;4939686;29;20223;-63
2022/04/05 06:30:09;;;;;;;7.38;1.88;;;;;;;;;;4939929;29;20623;-63
2022/04/05 06:32:35;;;;;;;3.85;1.25;;;;;;;;;;4939573;29;20256;-63
2022/04/05 06:35:02;;;;;;;3.90;1.40;;;;;;;;;;4939667;29;20192;-63
2022/04/05 06:37:28;;;;;;;8.32;1.42;;;;;;;;;;4939392;29;20617;-63
2022/04/05 06:39:54;;;;;;;6.88;1.65;;;;;;;;;;4939226;29;20211;-64
2022/04/05 06:42:20;;;;;;;4.97;1.48;;;;;;;;;;4939718;29;20173;-64
2022/04/05 06:44:46;;;;;;;7.70;1.30;;;;;;;;;;4939515;29;20204;-64
2022/04/05 06:47:12;;;;;;;6.88;1.33;;;;;;;;;;4939482;29;20542;-62
2022/04/05 06:49:39;;;;;;;7.45;1.70;;;;;;;;;;4954094;29;20204;-62
2022/04/05 06:52:05;;;;;;;6.30;1.00;;;;;;;;;;4939201;29;20239;-63
2022/04/05 06:54:31;;;;;;;4.88;1.15;;;;;;;;;;4938820;29;20177;-63
2022/04/05 06:56:57;;;;;;;7.57;1.92;;;;;;;;;;4938867;29;20235;-64
2022/04/05 06:59:23;;;;;;;7.22;1.40;;;;;;;;;;4938859;29;20205;-64
2022/04/05 07:01:49;;;;;;;6.00;1.25;;;;;;;;;;4938797;29;20213;-62
2022/04/05 07:04:15;;;;;;;5.45;1.25;;;;;;;;;;4939018;29;20177;-64
2022/04/05 07:06:41;;;;;;;9.15;1.27;;;;;;;;;;4939180;29;20235;-64
2022/04/05 07:09:07;;;;;;;7.55;1.65;;;;;;;;;;4939063;29;20168;-63
2022/04/05 07:11:33;;;;;;;7.18;1.70;;;;;;;;;;4938967;29;20173;-64
2022/04/05 07:13:59;;;;;;;9.50;1.98;;;;;;;;;;4938605;29;20252;-63
2022/04/05 07:16:25;;;;;;;5.10;1.08;;;;;;;;;;4938704;29;20200;-64
2022/04/05 07:18:51;;;;;;;6.80;1.50;;;;;;;;;;4938756;29;20165;-63
2022/04/05 07:21:20;;;;;;;9.20;1.42;;;;;;;;;;4938894;29;20173;-63
2022/04/05 07:23:46;;;;;;;7.32;1.65;;;;;;;;;;4937800;29;20180;-63
2022/04/05 07:26:12;;;;;;;5.60;1.30;;;;;;;;;;4938780;29;20193;-63
2022/04/05 07:28:38;;;;;;;9.00;1.63;;;;;;;;;;4938788;29;20602;-63
2022/04/05 07:31:04;;;;;;;7.57;1.50;;;;;;;;;;4938591;29;20176;-63
2022/04/05 07:33:30;;;;;;;7.38;1.10;;;;;;;;;;4938544;29;20232;-64
2022/04/05 07:35:57;;;;;;;8.25;1.40;;;;;;;;;;4938545;29;20212;-64
2022/04/05 07:38:24;;;;;;;6.78;1.20;;;;;;;;;;4938758;29;20180;-62
2022/04/05 07:40:52;;;;;;;6.80;1.13;;;;;;;;;;4938633;29;20188;-62
2022/04/05 07:43:19;;;;;;;8.13;1.60;;;;;;;;;;4938688;29;20165;-63
2022/04/05 07:45:48;;;;;;;6.03;1.10;;;;;;;;;;4938185;29;20585;-60
2022/04/05 07:48:14;;;;;;;7.47;1.50;;;;;;;;;;4938469;29;20173;-61
2022/04/05 07:50:40;;;;;;;7.03;1.25;;;;;;;;;;4938303;29;20161;-59
2022/04/05 07:53:06;;;;;;;5.05;1.60;;;;;;;;;;4938252;29;20180;-62
2022/04/05 07:55:32;;;;;;;5.07;1.27;;;;;;;;;;4938391;29;20489;-62
2022/04/05 07:57:58;;;;;;;5.97;1.20;;;;;;;;;;4938206;29;20172;-61
2022/04/05 08:00:26;;;;;;;5.28;1.08;;;;;;;;;;4938072;29;20204;-61
2022/04/05 08:02:51;;;;;;;5.78;1.75;;;;;;;;;;4938396;29;20209;-62
2022/04/05 08:05:17;;;;;;;6.78;1.40;;;;;;;;;;4938004;29;20409;-62
2022/04/05 08:07:46;;;;;;;6.63;1.35;;;;;;;;;;4944270;29;20653;-62
2022/04/05 08:10:13;;;;;;;5.68;1.25;;;;;;;;;;4938178;29;20216;-60
2022/04/05 08:12:43;;;;;;;3.55;1.00;;;;;;;;;;4937902;29;20169;-60
2022/04/05 08:15:10;;;;;;;3.00;0.93;;;;;;;;;;4938048;29;20192;-61
2022/04/05 08:17:36;;;;;;;3.95;1.27;;;;;;;;;;4937814;29;20199;-61
2022/04/05 08:20:02;;;;;;;8.13;1.35;;;;;;;;;;4937589;29;20173;-61
2022/04/05 08:22:28;;;;;;;5.88;1.35;;;;;;;;;;4937567;29;20605;-61
2022/04/05 08:24:54;;;;;;;4.88;1.00;;;;;;;;;;4937587;29;20229;-61
2022/04/05 08:27:20;;;;;;;5.28;1.20;;;;;;;;;;4937552;29;20196;-61
2022/04/05 08:29:46;;;;;;;5.80;1.55;;;;;;;;;;4937415;29;20172;-61
2022/04/05 08:32:12;;;;;;;4.88;1.38;;;;;;;;;;4937399;29;20512;-62
2022/04/05 08:34:41;;;;;;;5.50;1.33;;;;;;;;;;4937004;29;20184;-60
2022/04/05 08:37:08;;;;;;;7.10;1.17;;;;;;;;;;4937070;29;20177;-61
2022/04/05 08:39:34;;;;;;;7.85;1.00;;;;;;;;;;4937305;29;20164;-62
2022/04/05 08:42:00;;;;;;;6.15;1.70;;;;;;;;;;4937514;29;20173;-60
2022/04/05 08:44:26;;;;;;;7.00;1.50;;;;;;;;;;4936044;29;20806;-62
2022/04/05 08:46:52;;;;;;;6.65;1.30;;;;;;;;;;4936838;29;20207;-61
2022/04/05 08:49:19;;;;;;;5.90;1.40;;;;;;;;;;4937135;29;20177;-62
2022/04/05 08:51:45;;;;;;;2.42;1.00;;;;;;;;;;4937331;29;20267;-62
2022/04/05 08:54:11;;;;;;;3.83;0.98;;;;;;;;;;4936955;29;20248;-62
2022/04/05 08:56:37;;;;;;;4.53;1.13;;;;;;;;;;4937174;29;20176;-62
2022/04/05 08:59:03;;;;;;;5.15;1.00;;;;;;;;;;4937187;29;20511;-62
2022/04/05 09:01:29;;;;;;;6.45;1.20;;;;;;;;;;4936687;29;20180;-62
2022/04/05 09:03:56;;;;;;;7.22;1.23;;;;;;;;;;4937232;29;20195;-62
2022/04/05 09:06:29;;;;;;;7.45;1.10;;;;;;;;;;4937445;29;20527;-62
2022/04/05 09:09:14;;;;;;;3.30;1.27;;;;;;;;;;4937389;29;20558;-62
2022/04/05 09:11:44;;;;;;;4.30;1.00;;;;;;;;;;4937152;29;20593;-62
2022/04/05 09:14:10;;;;;;;7.22;1.67;;;;;;;;;;4936891;29;20557;-62
2022/04/05 09:16:36;;;;;;;5.78;1.00;;;;;;;;;;4936450;29;20181;-62
2022/04/05 09:19:15;;;;;;;3.25;0.93;;;;;;;;;;4936639;29;20505;-61
2022/04/05 09:21:51;;;;;;;5.75;1.42;;;;;;;;;;4936558;29;20495;-62
2022/04/05 09:24:17;;;;;;;2.60;1.25;;;;;;;;;;4937194;29;20172;-61
2022/04/05 09:26:44;;;;;;;7.43;1.15;;;;;;;;;;4936600;29;20633;-61
2022/04/05 09:29:10;;;;;;;4.47;1.05;;;;;;;;;;4936405;29;20172;-62
2022/04/05 09:31:47;;;;;;;3.83;0.98;;;;;;;;;;4936207;29;20169;-61
2022/04/05 09:34:17;;;;;;;5.32;0.88;;;;;;;;;;4936525;29;20161;-62
2022/04/05 09:36:44;;;;;;;3.42;1.00;;;;;;;;;;4936120;29;20267;-62
2022/04/05 09:39:17;;;;;;;3.22;0.93;;;;;;;;;;4936378;29;20605;-62
2022/04/05 09:41:43;;;;;;;3.75;1.13;;;;;;;;;;4936106;29;20173;-61
2022/04/05 09:44:09;;;;;;;3.53;1.00;;;;;;;;;;4936148;29;20628;-61
2022/04/05 09:46:36;;;;;;;4.72;1.35;;;;;;;;;;4937588;29;20204;-63
2022/04/05 09:49:05;;;;;;;4.07;1.37;;;;;;;;;;4939379;29;20427;-63
2022/04/05 09:51:35;;;;;;;5.00;1.00;;;;;;;;;;4939975;29;20169;-61
2022/04/05 09:54:01;;;;;;;4.25;1.27;;;;;;;;;;4940378;29;20235;-63
2022/04/05 09:56:34;;;;;;;4.32;0.88;;;;;;;;;;4940070;29;20169;-62
2022/04/05 09:59:03;;;;;;;2.60;0.60;;;;;;;;;;4940089;29;20611;-62
2022/04/05 10:01:30;;;;;;;1.77;0.65;;;;;;;;;;4940271;29;20177;-61
2022/04/05 10:04:10;;;;;;;3.88;0.98;;;;;;;;;;4940192;29;20173;-62
2022/04/05 10:06:43;;;;;;;3.88;1.10;;;;;;;;;;4939835;29;20275;-63
2022/04/05 10:09:09;;;;;;;4.43;0.80;;;;;;;;;;4940323;29;20161;-62
2022/04/05 10:11:37;;;;;;;4.55;0.90;;;;;;;;;;4939751;29;20176;-62
2022/04/05 10:14:03;;;;;;;4.43;1.23;;;;;;;;;;4940205;29;20215;-62
2022/04/05 10:16:30;;;;;;;1.52;0.73;;;;;;;;;;4939908;29;20193;-62
2022/04/05 10:19:00;;;;;;;1.10;0.43;;;;;;;;;;4940087;29;20472;-62
2022/04/05 10:21:27;;;;;;;2.28;0.80;;;;;;;;;;4941043;29;20688;-62
2022/04/05 10:23:55;;;;;;;4.25;0.85;;;;;;;;;;4941426;29;20177;-62
2022/04/05 10:26:24;;;;;;;2.58;0.70;;;;;;;;;;4941292;29;20652;-62
2022/04/05 10:28:51;;;;;;;2.28;0.70;;;;;;;;;;4944819;29;20177;-62
2022/04/05 10:31:40;;;;;;;4.53;0.77;;;;;;;;;;4947419;29;20605;-62
2022/04/05 10:34:24;;;;;;;2.08;0.70;;;;;;;;;;4947470;29;20164;-62
2022/04/05 10:37:06;;;;;;;4.05;0.75;;;;;;;;;;4963312;29;20172;-63
2022/04/05 10:39:32;;;;;;;0.73;0.50;;;;;;;;;;4951471;29;20180;-62
2022/04/05 10:42:13;;;;;;;1.48;0.57;;;;;;;;;;4952568;29;20199;-62
2022/04/05 10:44:40;;;;;;;2.17;0.40;;;;;;;;;;4953092;29;20169;-62
2022/04/05 10:47:07;;;;;;;2.03;0.55;;;;;;;;;;4953314;29;20248;-62
2022/04/05 10:49:33;;;;;;;2.08;0.50;;;;;;;;;;4953178;29;20196;-62
2022/04/05 10:52:06;;;;;;;1.85;0.60;;;;;;;;;;4949466;29;20168;-63
2022/04/05 10:54:41;;;;;;;3.08;0.68;;;;;;;;;;4943759;29;20177;-62
2022/04/05 10:57:17;;;;;;;1.77;0.50;;;;;;;;;;4951033;29;20179;-62
2022/04/05 10:59:46;;;;;;;1.42;0.60;;;;;;;;;;4955480;29;20204;-62
2022/04/05 11:02:27;;;;;;;2.72;0.52;;;;;;;;;;4940260;29;20209;-62
2022/04/05 11:05:00;;;;;;;1.73;0.60;;;;;;;;;;4938841;29;20177;-63
2022/04/05 11:07:26;;;;;;;1.60;0.70;;;;;;;;;;4938317;29;20793;-62
2022/04/05 11:09:55;;;;;;;2.17;0.75;;;;;;;;;;4939246;29;20528;-63
2022/04/05 11:12:23;;;;;;;3.30;0.85;;;;;;;;;;4939035;29;20169;-62
2022/04/05 11:14:52;;;;;;;2.10;0.70;;;;;;;;;;4938992;29;20560;-62
2022/04/05 11:17:19;;;;;;;2.50;1.00;;;;;;;;;;4937795;29;20429;-62
2022/04/05 11:19:46;;;;;;;3.92;0.90;;;;;;;;;;4938621;29;20180;-62
2022/04/05 11:22:21;;;;;;;1.70;0.70;;;;;;;;;;4938785;29;20180;-62
2022/04/05 11:24:53;;;;;;;2.30;0.75;;;;;;;;;;4938778;29;20177;-62
2022/04/05 11:27:28;;;;;;;4.55;0.80;;;;;;;;;;4938412;29;20712;-62
2022/04/05 11:30:12;;;;;;;3.17;0.80;;;;;;;;;;4938590;29;20254;-62
2022/04/05 11:32:38;;;;;;;0.88;0.60;;;;;;;;;;4938232;29;20177;-62
2022/04/05 11:35:04;;;;;;;4.32;0.90;;;;;;;;;;4938438;29;20624;-59
2022/04/05 11:37:34;;;;;;;2.83;0.80;;;;;;;;;;4938137;29;20417;-61
2022/04/05 11:40:01;;;;;;;3.65;0.90;;;;;;;;;;4938604;29;20270;-63
2022/04/05 11:42:27;;;;;;;1.83;0.55;;;;;;;;;;4938201;29;20173;-62
2022/04/05 11:44:54;;;;;;;2.05;0.70;;;;;;;;;;4938381;29;20177;-62
2022/04/05 11:47:20;;;;;;;4.38;0.75;;;;;;;;;;4938266;29;20192;-62
2022/04/05 11:49:46;;;;;;;5.00;1.13;;;;;;;;;;4938285;29;20169;-64
2022/04/05 11:52:12;;;;;;;3.88;0.65;;;;;;;;;;4938084;29;20173;-60
2022/04/05 11:56:00;;;;;;;3.88;0.90;;;;;;;;;;4938019;29;20598;-60
2022/04/05 11:57:25;;;;;;;3.05;0.88;;;;;;;;;;4937919;29;20213;-61
2022/04/05 12:00:03;;;;;;;2.22;0.68;;;;;;;;;;4938201;29;20240;-60
2022/04/05 12:02:30;;;;;;;2.92;0.70;;;;;;;;;;4937854;29;20161;-60
2022/04/05 12:04:55;;;;;;;3.25;0.55;;;;;;;;;;4937941;29;20545;-60
2022/04/05 12:07:21;;;;;;;3.08;0.70;;;;;;;;;;4937373;29;20201;-60
2022/04/05 12:09:47;;;;;;;3.53;0.85;;;;;;;;;;4937364;29;20172;-60
2022/04/05 12:12:14;;;;;;;2.45;0.85;;;;;;;;;;4937297;29;20173;-59
2022/04/05 12:14:40;;;;;;;2.70;0.77;;;;;;;;;;4937572;29;20169;-60
2022/04/05 12:17:06;;;;;;;2.80;0.60;;;;;;;;;;4937412;29;20193;-60
2022/04/05 12:19:39;;;;;;;1.20;0.50;;;;;;;;;;4937551;29;20550;-60
2022/04/05 12:22:16;;;;;;;3.28;0.75;;;;;;;;;;4937667;29;20187;-61
2022/04/05 12:24:53;;;;;;;5.18;1.13;;;;;;;;;;4937597;29;20161;-61
2022/04/05 12:27:23;;;;;;;3.13;0.80;;;;;;;;;;4937184;29;20192;-61
2022/04/05 12:29:50;;;;;;;2.38;1.00;;;;;;;;;;4937085;29;20597;-61
2022/04/05 12:32:16;;;;;;;2.55;0.70;;;;;;;;;;4937191;29;20184;-60
2022/04/05 12:34:42;;;;;;;7.53;1.20;;;;;;;;;;4937047;29;20614;-61
2022/04/05 12:37:14;;;;;;;3.95;0.90;;;;;;;;;;4937195;29;20173;-61
2022/04/05 12:39:45;;;;;;;4.60;0.80;;;;;;;;;;4937007;29;20153;-61
2022/04/05 12:42:11;;;;;;;5.85;1.00;;;;;;;;;;4937133;29;20489;-61
2022/04/05 12:44:41;;;;;;;3.55;0.93;;;;;;;;;;4936871;29;20605;-61
2022/04/05 12:47:14;;;;;;;3.33;0.80;;;;;;;;;;4936869;29;20197;-61
2022/04/05 12:49:41;;;;;;;2.00;1.00;;;;;;;;;;4937011;29;20165;-61
2022/04/05 12:52:09;;;;;;;2.50;1.00;;;;;;;;;;4937161;29;20176;-61
2022/04/05 12:54:35;;;;;;;1.95;0.68;;;;;;;;;;4936525;29;20600;-61
2022/04/05 12:57:13;;;;;;;2.70;0.85;;;;;;;;;;4936787;29;20223;-61
2022/04/05 12:59:39;;;;;;;3.20;0.80;;;;;;;;;;4936803;29;20169;-61
2022/04/05 13:02:05;;;;;;;6.20;1.00;;;;;;;;;;4936297;29;20564;-61
2022/04/05 13:04:31;;;;;;;1.55;0.73;;;;;;;;;;4936820;29;20552;-61
2022/04/05 13:07:00;;;;;;;1.63;0.60;;;;;;;;;;4936509;29;20236;-61
2022/04/05 13:09:29;;;;;;;3.38;0.68;;;;;;;;;;4936850;29;20173;-61
2022/04/05 13:12:08;;;;;;;3.28;0.77;;;;;;;;;;4936453;29;20204;-61
2022/04/05 13:14:34;;;;;;;4.18;0.77;;;;;;;;;;4936497;29;20192;-61
2022/04/05 13:17:01;;;;;;;3.00;0.73;;;;;;;;;;4936501;29;20319;-60
2022/04/05 13:19:27;;;;;;;2.20;0.68;;;;;;;;;;4936745;29;20168;-61
2022/04/05 13:21:54;;;;;;;2.42;0.70;;;;;;;;;;4936077;29;20173;-61
2022/04/05 13:24:21;;;;;;;4.72;0.88;;;;;;;;;;4936671;29;20255;-61
2022/04/05 13:26:47;;;;;;;2.47;1.00;;;;;;;;;;4936664;29;20223;-61
2022/04/05 13:29:15;;;;;;;1.80;0.88;;;;;;;;;;4936721;29;20173;-61
2022/04/05 13:31:42;;;;;;;2.00;0.80;;;;;;;;;;4939322;29;20697;-61
2022/04/05 13:34:09;;;;;;;4.72;0.90;;;;;;;;;;4944200;29;20185;-61
2022/04/05 13:36:36;;;;;;;1.90;0.65;;;;;;;;;;4936413;29;20240;-61
2022/04/05 13:39:02;;;;;;;3.60;0.60;;;;;;;;;;4936175;29;20208;-61
2022/04/05 13:41:27;;;;;;;2.92;0.93;;;;;;;;;;4936300;29;20582;-61
2022/04/05 13:43:55;;;;;;;4.05;1.13;;;;;;;;;;4951197;29;20200;-61
2022/04/05 13:46:22;;;;;;;3.80;0.70;;;;;;;;;;4936336;29;20197;-61
2022/04/05 13:48:47;;;;;;;2.42;0.77;;;;;;;;;;4935966;29;20172;-61
2022/04/05 13:51:13;;;;;;;1.85;0.75;;;;;;;;;;4936616;29;20472;-61
2022/04/05 13:53:39;;;;;;;3.97;1.00;;;;;;;;;;4936288;29;20176;-61
2022/04/05 13:56:05;;;;;;;1.65;0.68;;;;;;;;;;4936169;29;20177;-61
2022/04/05 13:58:31;;;;;;;3.40;0.90;;;;;;;;;;4936111;29;20211;-60
2022/04/05 14:00:57;;;;;;;3.00;0.85;;;;;;;;;;4936216;29;20173;-60
2022/04/05 14:03:23;;;;;;;5.07;1.00;;;;;;;;;;4936495;29;20173;-61
2022/04/05 14:05:49;;;;;;;2.15;0.80;;;;;;;;;;4935940;29;20173;-61
2022/04/05 14:08:15;;;;;;;3.08;0.90;;;;;;;;;;4939312;29;20181;-61
2022/04/05 14:10:41;;;;;;;2.80;0.88;;;;;;;;;;4940132;29;20497;-61
2022/04/05 14:13:07;;;;;;;5.63;1.25;;;;;;;;;;4936203;29;20160;-61
2022/04/05 14:15:33;;;;;;;5.97;1.35;;;;;;;;;;4936016;29;20161;-61
2022/04/05 14:17:59;;;;;;;1.42;0.63;;;;;;;;;;4936088;29;20462;-61
2022/04/05 14:20:25;;;;;;;3.28;0.80;;;;;;;;;;4936196;29;20515;-61
2022/04/05 14:22:51;;;;;;;4.65;1.38;;;;;;;;;;4936125;29;20589;-61
2022/04/05 14:25:18;;;;;;;2.67;0.90;;;;;;;;;;4935906;29;20177;-61
2022/04/05 14:27:44;;;;;;;3.08;0.82;;;;;;;;;;4935841;29;20188;-61
2022/04/05 14:30:10;;;;;;;4.68;1.10;;;;;;;;;;4936021;29;20179;-60
2022/04/05 14:32:36;;;;;;;3.65;0.98;;;;;;;;;;4936516;29;20250;-60
2022/04/05 14:35:02;;;;;;;3.88;1.05;;;;;;;;;;4939251;29;20169;-60
2022/04/05 14:37:28;;;;;;;2.20;1.10;;;;;;;;;;4939555;29;20197;-61
2022/04/05 14:39:54;;;;;;;3.72;1.02;;;;;;;;;;4939342;29;20566;-61
2022/04/05 14:42:20;;;;;;;3.78;1.13;;;;;;;;;;4939631;29;20173;-61
2022/04/05 14:44:46;;;;;;;2.65;1.00;;;;;;;;;;4939418;29;20260;-61